.
WxDataArchive / Data Records for 2015-09-20
2015-09-19 September 2015 2015-09-21

Data Records for Sunday, 20 September 2015

Time	Temp	Chill	HIndex	Humid	Dewpt	 Wind 	HiWind	WindDir	Rain 	Barom
-----	----	-----	------	-----	-----	------	------	-------	-----	-----
00:00	55.6	55.6	55.6	83	50.5	0	0	---	0.00	30.066 
00:05	55.4	55.4	55.4	84	50.6	0	0	---	0.00	30.066 
00:10	55.1	55.1	55.1	84	50.4	0	0	---	0.00	30.066 
00:15	55.1	55.1	55.1	84	50.4	0	0	---	0.00	30.066 
00:20	55.0	55.0	55.0	85	50.6	0	0	---	0.00	30.066 
00:25	54.8	54.8	54.8	85	50.4	0	0	---	0.00	30.066 
00:30	54.7	54.7	54.7	85	50.3	0	0	---	0.00	30.068 
00:35	54.7	54.7	54.7	86	50.6	0	0	---	0.00	30.068 
00:40	54.7	54.7	54.7	86	50.6	0	1	315	0.00	30.068 
00:45	54.7	54.7	54.7	86	50.6	0	0	---	0.00	30.067 
00:50	54.7	54.7	54.7	86	50.6	0	1	315	0.00	30.067 
00:55	54.7	54.7	54.7	85	50.3	0	0	---	0.00	30.067 
01:00	54.7	54.7	54.7	85	50.3	0	0	---	0.00	30.069 
01:05	54.5	54.5	54.5	85	50.1	0	1	315	0.00	30.069 
01:10	54.5	54.5	54.5	85	50.1	0	0	---	0.00	30.069 
01:15	54.4	54.4	54.4	85	50.0	0	0	---	0.00	30.066 
01:20	54.2	54.2	54.2	86	50.1	0	0	---	0.00	30.066 
01:25	54.1	54.1	54.1	86	50.0	0	0	---	0.00	30.066 
01:30	53.9	53.9	53.9	86	49.8	0	0	---	0.00	30.068 
01:35	53.6	53.6	53.6	86	49.5	0	0	---	0.00	30.068 
01:40	53.5	53.5	53.5	86	49.4	0	0	---	0.00	30.068 
01:45	53.2	53.2	53.2	87	49.4	0	0	---	0.00	30.068 
01:50	53.1	53.1	53.1	87	49.3	0	0	---	0.00	30.068 
01:55	53.1	53.1	53.1	88	49.6	0	0	---	0.00	30.068 
02:00	52.9	52.9	52.9	88	49.4	0	0	---	0.00	30.073 
02:05	52.8	52.8	52.8	88	49.3	0	0	---	0.00	30.073 
02:10	52.6	52.6	52.6	88	49.1	0	0	---	0.00	30.073 
02:15	52.5	52.5	52.5	88	49.0	0	0	---	0.00	30.077 
02:20	52.5	52.5	52.5	88	49.0	0	0	---	0.00	30.077 
02:25	52.5	52.5	52.5	89	49.4	0	0	---	0.00	30.077 
02:30	52.3	52.3	52.3	89	49.2	0	0	---	0.00	30.082 
02:35	52.2	52.2	52.2	89	49.1	0	0	---	0.00	30.082 
02:40	52.2	52.2	52.2	89	49.1	0	0	---	0.00	30.082 
02:45	52.0	52.0	52.0	89	48.9	0	0	---	0.00	30.082 
02:50	52.0	52.0	52.0	89	48.9	0	0	---	0.00	30.082 
02:55	52.2	52.2	52.2	90	49.4	0	0	---	0.00	30.082 
03:00	52.2	52.2	52.2	90	49.4	0	0	---	0.00	30.083 
03:05	52.2	52.2	52.2	90	49.4	0	0	---	0.00	30.083 
03:10	52.2	52.2	52.2	90	49.4	0	0	---	0.00	30.083 
03:15	52.3	52.3	52.3	90	49.5	0	0	---	0.00	30.084 
03:20	52.3	52.3	52.3	90	49.5	0	0	---	0.00	30.084 
03:25	52.3	52.3	52.3	90	49.5	0	0	---	0.00	30.084 
03:30	52.3	52.3	52.3	90	49.5	0	0	---	0.00	30.086 
03:35	52.3	52.3	52.3	90	49.5	0	0	---	0.00	30.086 
03:40	52.2	52.2	52.2	90	49.4	0	0	---	0.00	30.086 
03:45	52.2	52.2	52.2	90	49.4	0	0	---	0.00	30.093 
03:50	52.0	52.0	52.0	90	49.2	0	0	---	0.00	30.093 
03:55	52.0	52.0	52.0	90	49.2	0	0	---	0.00	30.093 
04:00	51.9	51.9	51.9	89	48.8	0	0	---	0.00	30.096 
04:05	51.6	51.6	51.6	89	48.5	0	0	---	0.00	30.096 
04:10	51.4	51.4	51.4	90	48.6	0	0	---	0.00	30.096 
04:15	51.1	51.1	51.1	90	48.3	0	0	---	0.00	30.101 
04:20	51.0	51.0	51.0	90	48.2	0	0	---	0.00	30.101 
04:25	50.8	50.8	50.8	90	48.0	0	0	---	0.00	30.101 
04:30	50.7	50.7	50.7	90	47.9	0	0	---	0.00	30.106 
04:35	50.7	50.7	50.7	90	47.9	0	0	---	0.00	30.106 
04:40	50.5	50.5	50.5	90	47.7	0	0	---	0.00	30.106 
04:45	50.5	50.5	50.5	91	48.0	0	0	---	0.00	30.105 
04:50	50.4	50.4	50.4	91	47.9	0	0	---	0.00	30.105 
04:55	50.4	50.4	50.4	91	47.9	0	0	---	0.00	30.105 
05:00	50.4	50.4	50.4	91	47.9	0	0	---	0.00	30.111 
05:05	50.4	50.4	50.4	91	47.9	0	0	---	0.00	30.111 
05:10	50.4	50.4	50.4	92	48.2	0	0	---	0.00	30.111 
05:15	50.5	50.5	50.5	92	48.3	0	0	---	0.00	30.113 
05:20	50.5	50.5	50.5	92	48.3	0	0	---	0.00	30.113 
05:25	50.5	50.5	50.5	92	48.3	0	0	---	0.00	30.113 
05:30	50.5	50.5	50.5	92	48.3	0	0	---	0.00	30.116 
05:35	50.4	50.4	50.4	92	48.2	0	0	---	0.00	30.116 
05:40	50.4	50.4	50.4	92	48.2	0	0	---	0.00	30.116 
05:45	50.4	50.4	50.4	92	48.2	0	0	---	0.00	30.120 
05:50	50.2	50.2	50.2	92	48.0	0	0	---	0.00	30.120 
05:55	50.2	50.2	50.2	92	48.0	0	0	---	0.00	30.120 
06:00	50.1	50.1	50.1	92	47.9	0	0	---	0.00	30.129 
06:05	49.9	49.9	49.9	92	47.7	0	0	---	0.00	30.129 
06:10	49.9	49.9	49.9	92	47.7	0	0	---	0.00	30.129 
06:15	49.8	49.8	49.8	92	47.6	0	0	---	0.00	30.132 
06:20	49.5	49.5	49.5	92	47.3	0	0	---	0.00	30.132 
06:25	49.5	49.5	49.5	92	47.3	0	0	---	0.00	30.132 
06:30	49.4	49.4	49.4	92	47.2	0	0	---	0.00	30.136 
06:35	49.2	49.2	49.2	92	47.0	0	0	---	0.00	30.136 
06:40	49.2	49.2	49.2	92	47.0	0	0	---	0.00	30.136 
06:45	49.1	49.1	49.1	92	46.9	0	0	---	0.00	30.136 
06:50	48.9	48.9	48.9	92	46.7	0	0	---	0.00	30.136 
06:55	48.8	48.8	48.8	92	46.6	0	0	---	0.00	30.136 
07:00	48.6	48.6	48.6	92	46.4	0	0	---	0.00	30.138 
07:05	48.5	48.5	48.5	92	46.3	0	0	---	0.00	30.138 
07:10	48.5	48.5	48.5	93	46.6	0	0	---	0.00	30.138 
07:15	48.3	48.3	48.3	93	46.4	0	0	---	0.00	30.151 
07:20	48.2	48.2	48.2	93	46.3	0	0	---	0.00	30.151 
07:25	48.2	48.2	48.2	93	46.3	0	0	---	0.00	30.151 
07:30	48.2	48.2	48.2	93	46.3	0	0	---	0.00	30.157 
07:35	48.3	48.3	48.3	93	46.4	0	0	---	0.00	30.157 
07:40	48.2	48.2	48.2	93	46.3	0	0	---	0.00	30.157 
07:45	48.2	48.2	48.2	93	46.3	0	0	---	0.00	30.163 
07:50	48.2	48.2	48.2	93	46.3	0	0	---	0.00	30.163 
07:55	48.2	48.2	48.2	93	46.3	0	0	---	0.00	30.163 
08:00	48.3	48.3	48.3	93	46.4	0	0	---	0.00	30.169 
08:05	48.3	48.3	48.3	93	46.4	0	0	---	0.00	30.169 
08:10	48.5	48.5	48.5	94	46.9	0	0	---	0.00	30.169 
08:15	48.6	48.6	48.6	94	47.0	0	0	---	0.00	30.180 
08:20	48.9	48.9	48.9	94	47.2	0	0	---	0.00	30.180 
08:25	49.4	49.4	49.4	94	47.7	0	0	---	0.00	30.180 
08:30	49.6	49.6	49.6	94	47.9	0	0	---	0.00	30.177 
08:35	50.2	50.2	50.2	94	48.5	0	0	---	0.00	30.177 
08:40	51.0	51.0	51.0	95	49.6	0	1	315	0.00	30.177 
08:45	51.6	51.6	51.6	94	49.9	0	0	---	0.00	30.182 
08:50	52.0	52.0	52.0	94	50.3	0	1	315	0.00	30.182 
08:55	52.5	52.5	52.5	93	50.5	0	1	315	0.00	30.182 
09:00	52.9	52.9	52.9	92	50.6	0	0	---	0.00	30.183 
09:05	53.3	53.3	53.3	91	50.7	0	2	315	0.00	30.183 
09:10	53.8	53.8	53.8	87	50.0	0	3	90	0.00	30.183 
09:15	54.4	54.4	54.4	85	50.0	0	1	90	0.00	30.184 
09:20	54.8	54.8	54.8	83	49.7	0	2	90	0.00	30.184 
09:25	55.3	55.3	55.3	81	49.6	0	1	90	0.00	30.184 
09:30	55.7	55.7	55.7	80	49.6	0	1	90	0.00	30.184 
09:35	56.3	56.3	56.3	79	49.9	0	1	90	0.00	30.184 
09:40	56.5	56.5	56.5	76	49.0	1	4	90	0.00	30.184 
09:45	56.9	56.9	56.9	74	48.7	1	4	90	0.00	30.188 
09:50	57.2	57.2	57.2	74	49.0	1	3	90	0.00	30.188 
09:55	57.8	57.8	57.8	74	49.6	0	1	90	0.00	30.188 
10:00	58.3	58.3	58.3	73	49.7	0	2	90	0.00	30.192 
10:05	59.0	59.0	59.0	71	49.6	1	2	90	0.00	30.192 
10:10	59.8	59.8	59.8	68	49.2	1	3	90	0.00	30.192 
10:15	60.4	60.4	60.4	68	49.8	0	3	90	0.00	30.194 
10:20	60.9	60.9	60.9	64	48.6	1	3	90	0.00	30.194 
10:25	61.3	61.3	61.3	62	48.2	1	3	90	0.00	30.194 
10:30	62.1	62.1	62.1	60	48.0	1	5	90	0.00	30.194 
10:35	62.7	62.7	62.7	60	48.6	1	3	90	0.00	30.194 
10:40	63.1	63.1	63.1	56	47.1	2	6	90	0.00	30.194 
10:45	63.5	63.5	63.5	56	47.5	1	5	90	0.00	30.193 
10:50	64.0	64.0	64.0	57	48.5	1	3	90	0.00	30.193 
10:55	64.7	64.7	64.7	55	48.2	1	3	90	0.00	30.193 
11:00	65.0	65.0	65.0	54	47.9	0	1	90	0.00	30.191 
11:05	65.2	65.2	65.2	52	47.1	1	5	90	0.00	30.191 
11:10	65.5	65.5	65.5	53	47.9	1	5	90	0.00	30.191 
11:15	65.6	65.6	65.6	49	45.9	2	4	90	0.00	30.191 
11:20	65.6	65.6	65.6	50	46.5	2	6	90	0.00	30.191 
11:25	65.8	65.8	65.8	50	46.6	1	4	90	0.00	30.191 
11:30	66.0	66.0	66.0	47	45.2	2	6	90	0.00	30.188 
11:35	66.0	66.0	66.0	48	45.7	2	5	90	0.00	30.188 
11:40	66.3	66.3	66.3	48	46.0	1	5	90	0.00	30.188 
11:45	66.4	66.4	66.4	47	45.5	1	4	90	0.00	30.190 
11:50	66.6	66.6	66.6	44	44.0	3	7	90	0.00	30.190 
11:55	66.4	66.4	66.4	45	44.4	3	7	90	0.00	30.190 
12:00	66.8	66.8	66.8	46	45.3	1	4	90	0.00	30.182 
12:05	67.1	67.1	67.1	43	43.8	2	6	90	0.00	30.182 
12:10	67.4	67.4	67.4	44	44.7	2	9	90	0.00	30.182 
12:15	67.6	67.6	67.6	45	45.5	2	6	90	0.00	30.179 
12:20	67.8	67.8	67.8	47	46.8	1	5	90	0.00	30.179 
12:25	67.8	67.8	67.8	46	46.3	1	5	90	0.00	30.179 
12:30	67.9	67.9	67.9	45	45.8	1	3	90	0.00	30.176 
12:35	68.1	68.1	68.1	47	47.1	1	4	90	0.00	30.176 
12:40	67.9	67.9	67.9	40	42.7	1	5	112	0.00	30.176 
12:45	68.1	68.1	68.1	45	45.9	0	2	112	0.00	30.172 
12:50	68.1	68.1	68.1	39	42.2	2	5	90	0.00	30.172 
12:55	68.1	68.1	68.1	41	43.5	2	7	90	0.00	30.172 
13:00	68.4	68.4	68.4	41	43.8	1	4	112	0.00	30.164 
13:05	68.6	68.6	68.6	40	43.3	1	5	112	0.00	30.164 
13:10	68.9	68.9	68.9	43	45.5	0	2	112	0.00	30.164 
13:15	69.3	69.3	69.3	44	46.4	0	2	112	0.00	30.164 
13:20	69.3	69.3	69.3	40	43.9	1	4	112	0.00	30.164 
13:25	69.1	69.1	69.1	41	44.4	1	5	112	0.00	30.164 
13:30	69.1	69.1	69.1	42	45.0	0	2	112	0.00	30.160 
13:35	69.4	69.4	69.4	41	44.7	1	3	112	0.00	30.160 
13:40	69.1	69.1	69.1	39	43.1	1	6	112	0.00	30.160 
13:45	69.1	69.1	69.1	39	43.1	1	4	112	0.00	30.155 
13:50	69.1	69.1	69.1	41	44.4	1	4	112	0.00	30.155 
13:55	69.1	69.1	69.1	41	44.4	1	3	112	0.00	30.155 
14:00	69.3	69.3	69.3	44	46.4	1	7	135	0.00	30.147 
14:05	69.3	69.3	69.3	43	45.8	1	5	90	0.00	30.147 
14:10	69.4	69.4	69.4	45	47.1	1	5	90	0.00	30.147 
14:15	69.4	69.4	69.4	39	43.4	1	4	112	0.00	30.147 
14:20	69.4	69.4	69.4	38	42.7	1	5	112	0.00	30.147 
14:25	69.1	69.1	69.1	39	43.1	1	4	292	0.00	30.147 
14:30	69.3	69.3	69.3	41	44.6	0	2	292	0.00	30.143 
14:35	69.4	69.4	69.4	42	45.3	1	5	90	0.00	30.143 
14:40	69.4	69.4	69.4	43	45.9	1	5	90	0.00	30.143 
14:45	69.6	69.6	69.6	39	43.5	1	5	90	0.00	30.130 
14:50	69.6	69.6	69.6	38	42.9	1	5	112	0.00	30.130 
14:55	69.4	69.4	69.4	40	44.0	1	5	112	0.00	30.130 
15:00	69.6	69.6	69.6	39	43.5	1	3	112	0.00	30.123 
15:05	69.6	69.6	69.6	40	44.2	1	4	45	0.00	30.123 
15:10	69.6	69.6	69.6	40	44.2	1	5	90	0.00	30.123 
15:15	69.8	69.8	69.8	40	44.4	1	4	90	0.00	30.122 
15:20	69.8	69.8	69.8	36	41.6	1	4	90	0.00	30.122 
15:25	69.6	69.6	69.6	39	43.5	1	6	112	0.00	30.122 
15:30	69.8	69.8	69.8	41	45.0	0	3	112	0.00	30.117 
15:35	69.9	69.9	69.9	36	41.7	1	5	112	0.00	30.117 
15:40	70.1	70.1	70.1	39	44.0	1	4	112	0.00	30.117 
15:45	70.1	70.1	70.1	39	44.0	1	5	112	0.00	30.114 
15:50	70.1	70.1	70.1	39	44.0	1	4	68	0.00	30.114 
15:55	69.9	69.9	69.9	37	42.4	0	4	22	0.00	30.114 
16:00	69.8	69.8	69.8	37	42.3	1	3	112	0.00	30.112 
16:05	69.6	69.6	69.6	39	43.5	1	4	22	0.00	30.112 
16:10	69.6	69.6	69.6	41	44.8	1	3	45	0.00	30.112 
16:15	69.8	69.8	69.8	39	43.7	1	4	112	0.00	30.104 
16:20	69.8	69.8	69.8	38	43.0	1	5	112	0.00	30.104 
16:25	69.8	69.8	69.8	35	40.9	1	4	112	0.00	30.104 
16:30	69.6	69.6	69.6	38	42.9	0	2	112	0.00	30.104 
16:35	69.6	69.6	69.6	35	40.7	1	4	112	0.00	30.104 
16:40	69.6	69.6	69.6	36	41.5	1	5	112	0.00	30.104 
16:45	69.6	69.6	69.6	39	43.5	1	5	112	0.00	30.101 
16:50	69.6	69.6	69.6	39	43.5	1	6	112	0.00	30.101 
16:55	69.6	69.6	69.6	40	44.2	2	6	90	0.00	30.101 
17:00	69.4	69.4	69.4	39	43.4	1	4	68	0.00	30.101 
17:05	69.4	69.4	69.4	41	44.7	0	3	45	0.00	30.101 
17:10	69.4	69.4	69.4	40	44.0	0	3	68	0.00	30.101 
17:15	69.4	69.4	69.4	39	43.4	1	5	90	0.00	30.100 
17:20	69.4	69.4	69.4	39	43.4	1	5	90	0.00	30.100 
17:25	69.3	69.3	69.3	40	43.9	2	5	90	0.00	30.100 
17:30	69.3	69.3	69.3	41	44.6	2	4	112	0.00	30.099 
17:35	69.3	69.3	69.3	39	43.3	1	4	112	0.00	30.099 
17:40	69.3	69.3	69.3	39	43.3	1	3	112	0.00	30.099 
17:45	69.1	69.1	69.1	39	43.1	1	3	112	0.00	30.096 
17:50	69.1	69.1	69.1	40	43.8	0	2	112	0.00	30.096 
17:55	69.1	69.1	69.1	39	43.1	1	5	112	0.00	30.096 
18:00	68.9	68.9	68.9	40	43.6	0	3	112	0.00	30.097 
18:05	68.9	68.9	68.9	38	42.2	1	3	112	0.00	30.097 
18:10	68.9	68.9	68.9	39	42.9	0	4	112	0.00	30.097 
18:15	68.8	68.8	68.8	39	42.8	1	6	90	0.00	30.099 
18:20	68.8	68.8	68.8	40	43.5	1	5	90	0.00	30.099 
18:25	68.8	68.8	68.8	40	43.5	1	4	90	0.00	30.099 
18:30	68.8	68.8	68.8	39	42.8	2	4	90	0.00	30.100 
18:35	68.6	68.6	68.6	40	43.3	1	5	68	0.00	30.100 
18:40	68.6	68.6	68.6	38	42.0	1	3	68	0.00	30.100 
18:45	68.4	68.4	68.4	39	42.5	0	2	68	0.00	30.103 
18:50	68.1	68.1	68.1	40	42.9	1	3	68	0.00	30.103 
18:55	67.9	67.9	67.9	41	43.3	0	3	68	0.00	30.103 
19:00	67.6	67.6	67.6	40	42.4	0	1	68	0.00	30.099 
19:05	67.3	67.3	67.3	41	42.8	0	1	68	0.00	30.099 
19:10	66.9	66.9	66.9	41	42.4	0	1	68	0.00	30.099 
19:15	66.6	66.6	66.6	42	42.8	0	1	68	0.00	30.100 
19:20	66.4	66.4	66.4	43	43.2	0	0	---	0.00	30.100 
19:25	66.1	66.1	66.1	44	43.5	0	0	---	0.00	30.100 
19:30	65.6	65.6	65.6	45	43.7	0	0	---	0.00	30.098 
19:35	65.3	65.3	65.3	45	43.4	0	0	---	0.00	30.098 
19:40	64.8	64.8	64.8	46	43.5	0	0	---	0.00	30.098 
19:45	64.3	64.3	64.3	47	43.6	0	0	---	0.00	30.099 
19:50	63.9	63.9	63.9	47	43.3	0	0	---	0.00	30.099 
19:55	63.4	63.4	63.4	49	43.9	0	0	---	0.00	30.099 
20:00	62.9	62.9	62.9	50	44.0	0	0	---	0.00	30.103 
20:05	62.4	62.4	62.4	51	44.0	0	0	---	0.00	30.103 
20:10	62.1	62.1	62.1	53	44.8	0	0	---	0.00	30.103 
20:15	61.6	61.6	61.6	54	44.8	0	0	---	0.00	30.091 
20:20	61.2	61.2	61.2	54	44.4	0	0	---	0.00	30.091 
20:25	60.9	60.9	60.9	56	45.1	0	0	---	0.00	30.091 
20:30	60.5	60.5	60.5	58	45.6	0	0	---	0.00	30.101 
20:35	60.2	60.2	60.2	58	45.4	0	0	---	0.00	30.101 
20:40	59.9	59.9	59.9	58	45.1	0	0	---	0.00	30.101 
20:45	59.6	59.6	59.6	59	45.3	0	0	---	0.00	30.106 
20:50	59.3	59.3	59.3	60	45.4	0	0	---	0.00	30.106 
20:55	59.2	59.2	59.2	61	45.8	0	0	---	0.00	30.106 
21:00	58.9	58.9	58.9	61	45.5	0	0	---	0.00	30.108 
21:05	58.7	58.7	58.7	62	45.7	0	0	---	0.00	30.108 
21:10	59.0	59.0	59.0	61	45.6	0	2	68	0.00	30.108 
21:15	59.6	59.6	59.6	61	46.1	0	2	68	0.00	30.111 
21:20	59.9	59.9	59.9	60	46.0	0	3	68	0.00	30.111 
21:25	60.2	60.2	60.2	61	46.7	0	2	68	0.00	30.111 
21:30	60.2	60.2	60.2	62	47.1	0	3	68	0.00	30.115 
21:35	60.2	60.2	60.2	62	47.1	0	0	---	0.00	30.115 
21:40	60.1	60.1	60.1	62	47.0	0	0	---	0.00	30.115 
21:45	59.9	59.9	59.9	62	46.8	0	0	---	0.00	30.116 
21:50	59.6	59.6	59.6	63	47.0	0	0	---	0.00	30.116 
21:55	59.5	59.5	59.5	63	46.9	0	0	---	0.00	30.116 
22:00	59.2	59.2	59.2	64	47.0	0	0	---	0.00	30.120 
22:05	58.9	58.9	58.9	65	47.2	0	0	---	0.00	30.120 
22:10	58.4	58.4	58.4	66	47.1	0	0	---	0.00	30.120 
22:15	58.1	58.1	58.1	67	47.2	0	0	---	0.00	30.116 
22:20	57.8	57.8	57.8	69	47.7	0	0	---	0.00	30.116 
22:25	57.5	57.5	57.5	70	47.8	0	0	---	0.00	30.116 
22:30	57.2	57.2	57.2	71	47.9	0	0	---	0.00	30.115 
22:35	56.9	56.9	56.9	72	48.0	0	0	---	0.00	30.115 
22:40	56.7	56.7	56.7	73	48.1	0	0	---	0.00	30.115 
22:45	56.6	56.6	56.6	73	48.0	0	0	---	0.00	30.115 
22:50	56.6	56.6	56.6	73	48.0	0	0	---	0.00	30.115 
22:55	56.5	56.5	56.5	73	47.9	0	0	---	0.00	30.115 
23:00	56.3	56.3	56.3	73	47.8	0	0	---	0.00	30.117 
23:05	56.2	56.2	56.2	73	47.7	0	0	---	0.00	30.117 
23:10	56.2	56.2	56.2	74	48.0	0	0	---	0.00	30.117 
23:15	56.0	56.0	56.0	74	47.8	0	0	---	0.00	30.118 
23:20	55.7	55.7	55.7	75	47.9	0	0	---	0.00	30.118 
23:25	55.6	55.6	55.6	75	47.8	0	0	---	0.00	30.118 
23:30	55.3	55.3	55.3	76	47.9	0	0	---	0.00	30.121 
23:35	55.0	55.0	55.0	76	47.6	0	0	---	0.00	30.121 
23:40	54.7	54.7	54.7	77	47.6	0	0	---	0.00	30.121 
23:45	54.5	54.5	54.5	78	47.8	0	0	---	0.00	30.119 
23:50	54.2	54.2	54.2	78	47.5	0	0	---	0.00	30.119 
23:55	53.9	53.9	53.9	78	47.2	0	0	---	0.00	30.119 

CoCoRaHS
IN-AL-39
A2 Web Hosting
Creative Commons License
GoDaddy
search engine by freefind advanced

loaded 2018-11-13 22:00:01 • last modified 2010-11-18 10:43:29
Privacy PolicyDisclaimer
• wx.awcolley.com is powered by PmWiki v.2002016 •
• all content (unless otherwise noted) © 2018 A W Colley